Time;durP1;ratioP1;P1;durP2;ratioP2;P2;SDS_P1;SDS_P2;PMS_P1;PMS_P2;Temp;Humidity;BMP_temperature;BMP_pressure;BME280_temperature;BME280_humidity;BME280_pressure;Samples;Min_cycle;Max_cycle;Signal;HPM_P1;HPM_P2
2023/10/24 00:01:04;;;;;;;10.65;5.32;;;10.10;99.90;;;;;;5003040;28;20143;-77
2023/10/24 00:03:29;;;;;;;13.65;4.70;;;10.10;99.90;;;;;;5020862;28;20077;-78
2023/10/24 00:05:55;;;;;;;8.60;4.95;;;10.10;99.90;;;;;;5029969;28;20049;-77
2023/10/24 00:08:20;;;;;;;11.65;4.88;;;10.10;99.90;;;;;;5020187;28;20530;-78
2023/10/24 00:10:46;;;;;;;14.27;5.30;;;10.10;99.90;;;;;;5020999;28;20030;-78
2023/10/24 00:13:12;;;;;;;11.40;5.97;;;10.10;99.90;;;;;;5021181;28;20045;-78
2023/10/24 00:15:37;;;;;;;9.70;5.60;;;10.10;99.90;;;;;;5021336;28;20029;-78
2023/10/24 00:18:03;;;;;;;7.40;4.97;;;10.10;99.90;;;;;;5020375;28;20539;-78
2023/10/24 00:20:29;;;;;;;8.00;4.85;;;10.10;99.90;;;;;;5019316;28;20037;-78
2023/10/24 00:22:54;;;;;;;11.07;4.95;;;10.10;99.90;;;;;;5021194;28;20152;-77
2023/10/24 00:25:20;;;;;;;8.90;5.25;;;10.10;99.90;;;;;;5019978;28;20045;-77
2023/10/24 00:27:46;;;;;;;12.25;5.18;;;10.10;99.90;;;;;;5020662;28;20119;-78
2023/10/24 00:30:12;;;;;;;6.95;4.38;;;10.10;99.90;;;;;;5018547;28;20523;-77
2023/10/24 00:32:37;;;;;;;12.27;4.95;;;10.10;99.90;;;;;;5020538;28;20668;-77
2023/10/24 00:35:03;;;;;;;11.75;5.05;;;10.10;99.90;;;;;;5019599;28;20029;-78
2023/10/24 00:37:29;;;;;;;7.90;4.53;;;10.10;99.90;;;;;;5020630;28;20068;-77
2023/10/24 00:39:54;;;;;;;10.82;4.20;;;10.10;99.90;;;;;;5003399;28;20041;-77
2023/10/24 00:42:20;;;;;;;9.40;4.82;;;10.10;99.90;;;;;;5020675;28;20045;-77
2023/10/24 00:44:47;;;;;;;8.30;4.43;;;10.10;99.90;;;;;;5019093;28;20455;-78
2023/10/24 00:47:14;;;;;;;8.27;4.40;;;10.10;99.90;;;;;;5019204;28;20056;-77
2023/10/24 00:49:40;;;;;;;9.82;4.72;;;10.10;99.90;;;;;;5020124;28;20124;-77
2023/10/24 00:52:06;;;;;;;8.90;3.83;;;10.10;99.90;;;;;;5021073;28;20216;-77
2023/10/24 00:54:34;;;;;;;7.95;4.45;;;10.10;99.90;;;;;;5020770;28;20150;-77
2023/10/24 00:57:00;;;;;;;7.93;4.13;;;10.10;99.90;;;;;;5023536;28;20547;-77
2023/10/24 00:59:27;;;;;;;9.55;5.50;;;10.10;99.90;;;;;;5023706;28;20038;-77
2023/10/24 01:01:53;;;;;;;11.85;4.57;;;10.10;99.90;;;;;;5021547;28;20492;-77
2023/10/24 01:04:21;;;;;;;9.23;3.90;;;10.10;99.90;;;;;;5022504;28;20064;-77
2023/10/24 01:06:47;;;;;;;9.85;4.60;;;10.10;99.90;;;;;;5023108;28;20054;-76
2023/10/24 01:09:12;;;;;;;16.17;4.70;;;10.10;99.90;;;;;;5023827;28;20523;-77
2023/10/24 01:11:38;;;;;;;10.07;4.65;;;10.10;99.90;;;;;;5005630;28;20080;-77
2023/10/24 01:14:04;;;;;;;7.30;4.57;;;10.00;99.90;;;;;;5023360;28;20045;-77
2023/10/24 01:16:33;;;;;;;11.90;5.00;;;10.00;99.90;;;;;;5023580;28;20128;-77
2023/10/24 01:18:58;;;;;;;13.80;5.10;;;10.00;99.90;;;;;;5023369;28;20046;-77
2023/10/24 01:21:24;;;;;;;10.63;4.03;;;10.00;99.90;;;;;;5022385;28;20053;-77
2023/10/24 01:23:53;;;;;;;10.93;5.57;;;10.00;99.90;;;;;;5006046;28;20206;-77
2023/10/24 01:26:19;;;;;;;6.63;3.75;;;10.00;99.90;;;;;;5014392;28;20037;-77
2023/10/24 01:28:45;;;;;;;10.23;5.35;;;10.00;99.90;;;;;;5022531;28;20802;-77
2023/10/24 01:31:10;;;;;;;10.02;5.03;;;10.00;99.90;;;;;;5021171;28;20065;-77
2023/10/24 01:33:36;;;;;;;7.43;4.03;;;10.00;99.90;;;;;;5024369;28;20037;-77
2023/10/24 01:36:02;;;;;;;8.93;5.40;;;10.00;99.90;;;;;;5006293;28;20042;-77
2023/10/24 01:38:27;;;;;;;11.27;5.03;;;10.00;99.90;;;;;;5021921;28;20041;-76
2023/10/24 01:40:53;;;;;;;10.95;4.90;;;10.00;99.90;;;;;;5006138;28;20041;-77
2023/10/24 01:43:18;;;;;;;8.27;4.75;;;10.00;99.90;;;;;;5005481;28;20052;-77
2023/10/24 01:45:44;;;;;;;12.90;5.95;;;10.00;99.90;;;;;;5022995;28;20491;-77
2023/10/24 01:48:09;;;;;;;12.88;6.20;;;10.00;99.90;;;;;;5022187;28;20045;-77
2023/10/24 01:50:35;;;;;;;12.23;5.90;;;10.00;99.90;;;;;;5024252;28;20045;-76
2023/10/24 01:53:01;;;;;;;13.35;5.75;;;10.00;99.90;;;;;;5005633;28;20484;-77
2023/10/24 01:55:26;;;;;;;12.02;4.68;;;9.90;99.90;;;;;;5020987;28;20080;-76
2023/10/24 01:57:52;;;;;;;13.15;5.22;;;9.90;99.90;;;;;;5022414;28;20045;-76
2023/10/24 02:00:18;;;;;;;9.57;5.35;;;9.90;99.90;;;;;;5021227;28;20025;-77
2023/10/24 02:02:43;;;;;;;7.72;5.40;;;9.90;99.90;;;;;;5026294;28;20051;-76
2023/10/24 02:05:09;;;;;;;12.57;6.60;;;9.90;99.90;;;;;;5024312;28;20463;-77
2023/10/24 02:07:35;;;;;;;10.90;5.70;;;9.90;99.90;;;;;;5022697;28;20143;-77
2023/10/24 02:10:01;;;;;;;10.07;5.47;;;9.90;99.90;;;;;;5022452;28;20128;-76
2023/10/24 02:12:26;;;;;;;11.63;6.32;;;10.00;99.90;;;;;;5021902;28;20045;-77
2023/10/24 02:14:52;;;;;;;9.90;5.53;;;9.90;99.90;;;;;;5021306;28;20052;-76
2023/10/24 02:17:17;;;;;;;11.07;6.38;;;9.90;99.90;;;;;;5023573;28;20049;-76
2023/10/24 02:19:43;;;;;;;10.48;4.68;;;9.90;99.90;;;;;;5023143;28;20500;-77
2023/10/24 02:22:09;;;;;;;13.18;5.88;;;9.90;99.90;;;;;;5021966;28;20053;-77
2023/10/24 02:24:36;;;;;;;12.52;5.43;;;9.90;99.90;;;;;;5023671;28;20111;-77
2023/10/24 02:27:01;;;;;;;11.70;5.68;;;9.90;99.90;;;;;;5021099;28;20117;-77
2023/10/24 02:29:27;;;;;;;10.77;5.03;;;9.90;99.90;;;;;;5021352;28;20116;-77
2023/10/24 02:31:52;;;;;;;9.25;5.22;;;9.90;99.90;;;;;;5021191;28;20624;-76
2023/10/24 02:34:19;;;;;;;14.07;6.25;;;10.00;99.90;;;;;;5021337;28;20049;-77
2023/10/24 02:36:45;;;;;;;13.50;6.80;;;9.90;99.90;;;;;;5021510;28;20049;-76
2023/10/24 02:39:10;;;;;;;9.65;5.47;;;9.90;99.90;;;;;;5021016;28;20056;-77
2023/10/24 02:41:36;;;;;;;8.43;4.20;;;9.90;99.90;;;;;;5021531;28;20088;-77
2023/10/24 02:44:01;;;;;;;12.43;5.60;;;9.90;99.90;;;;;;5005300;28;20057;-76
2023/10/24 02:46:27;;;;;;;10.73;5.18;;;9.90;99.90;;;;;;5021569;28;20037;-77
2023/10/24 02:48:53;;;;;;;9.32;4.53;;;9.90;99.90;;;;;;5021392;28;20127;-77
2023/10/24 02:51:20;;;;;;;10.23;5.70;;;10.00;99.90;;;;;;5020659;28;20408;-76
2023/10/24 02:53:46;;;;;;;7.13;4.95;;;9.90;99.90;;;;;;5022359;28;20053;-77
2023/10/24 02:56:11;;;;;;;7.97;5.10;;;9.90;99.90;;;;;;5021127;28;20041;-76
2023/10/24 02:58:38;;;;;;;10.57;4.97;;;10.00;99.90;;;;;;5021597;28;20037;-77
2023/10/24 03:01:04;;;;;;;5.55;3.42;;;10.00;99.90;;;;;;5020129;28;20045;-77
2023/10/24 03:03:30;;;;;;;9.40;4.65;;;10.00;99.90;;;;;;5020695;28;20046;-77
2023/10/24 03:05:56;;;;;;;7.82;4.18;;;10.00;99.90;;;;;;5004548;28;20175;-77
2023/10/24 03:08:22;;;;;;;10.98;5.35;;;10.00;99.90;;;;;;5020467;28;20124;-77
2023/10/24 03:10:47;;;;;;;7.85;4.32;;;10.00;99.90;;;;;;5020897;28;20547;-77
2023/10/24 03:13:13;;;;;;;13.85;4.63;;;10.00;99.90;;;;;;5020687;28;20045;-77
2023/10/24 03:15:40;;;;;;;9.85;5.80;;;10.10;99.90;;;;;;5021946;28;20131;-77
2023/10/24 03:18:06;;;;;;;8.15;5.65;;;10.00;99.90;;;;;;5022130;28;20045;-77
2023/10/24 03:20:32;;;;;;;6.43;4.45;;;10.10;99.90;;;;;;5021161;28;20055;-77
2023/10/24 03:22:58;;;;;;;7.10;3.42;;;10.10;99.90;;;;;;5021437;28;20076;-76
2023/10/24 03:25:24;;;;;;;5.82;3.92;;;10.10;99.90;;;;;;5003392;28;20491;-77
2023/10/24 03:27:54;;;;;;;9.50;5.05;;;10.10;99.90;;;;;;5026685;28;20040;-78
2023/10/24 03:30:20;;;;;;;8.68;4.60;;;10.10;99.90;;;;;;5023235;28;20046;-77
2023/10/24 03:32:46;;;;;;;9.30;3.80;;;10.10;99.90;;;;;;5020829;28;20528;-76
2023/10/24 03:35:12;;;;;;;7.88;3.60;;;10.10;99.90;;;;;;5020586;28;20053;-77
2023/10/24 03:37:38;;;;;;;7.38;3.35;;;10.10;99.90;;;;;;5021759;28;20060;-77
2023/10/24 03:40:04;;;;;;;5.82;3.30;;;10.10;99.90;;;;;;5020279;28;20439;-77
2023/10/24 03:42:30;;;;;;;5.15;2.90;;;10.20;99.90;;;;;;5029150;28;20151;-77
2023/10/24 03:44:56;;;;;;;8.43;3.85;;;10.20;99.90;;;;;;5041073;28;20051;-77
2023/10/24 03:47:21;;;;;;;5.72;3.67;;;10.20;99.90;;;;;;5029896;28;20144;-77
2023/10/24 03:49:47;;;;;;;6.30;3.65;;;10.20;99.90;;;;;;5020636;28;20128;-77
2023/10/24 03:52:13;;;;;;;7.38;3.47;;;10.20;99.90;;;;;;5003480;28;20492;-77
2023/10/24 03:54:38;;;;;;;10.25;4.32;;;10.20;99.90;;;;;;5004071;28;20050;-77
2023/10/24 03:57:04;;;;;;;5.68;3.60;;;10.20;99.90;;;;;;5003928;28;20454;-77
2023/10/24 03:59:29;;;;;;;8.75;4.43;;;10.30;99.90;;;;;;5020368;28;20531;-77
2023/10/24 04:01:56;;;;;;;6.97;3.95;;;10.30;99.90;;;;;;5019972;28;20046;-77
2023/10/24 04:04:21;;;;;;;5.57;3.55;;;10.30;99.90;;;;;;5021506;28;20056;-77
2023/10/24 04:06:47;;;;;;;7.22;3.83;;;10.30;99.90;;;;;;5020507;28;20049;-77
2023/10/24 04:09:13;;;;;;;6.72;3.75;;;10.30;99.90;;;;;;5019755;28;20092;-77
2023/10/24 04:11:38;;;;;;;8.18;4.53;;;10.30;99.90;;;;;;5020498;28;20085;-77
2023/10/24 04:14:04;;;;;;;6.85;3.75;;;10.30;99.90;;;;;;5003234;28;20056;-77
2023/10/24 04:16:32;;;;;;;8.40;4.90;;;10.30;99.90;;;;;;5017283;28;20388;-78
2023/10/24 04:18:58;;;;;;;10.38;4.13;;;10.30;99.90;;;;;;5021162;28;20050;-76
2023/10/24 04:21:23;;;;;;;9.32;4.40;;;10.40;99.90;;;;;;5023148;28;20049;-77
2023/10/24 04:23:49;;;;;;;10.75;5.30;;;10.40;99.90;;;;;;5021916;28;20045;-77
2023/10/24 04:26:15;;;;;;;8.98;4.80;;;10.40;99.90;;;;;;5020000;28;20506;-76
2023/10/24 04:28:41;;;;;;;9.23;4.25;;;10.40;99.90;;;;;;5004776;28;20670;-78
2023/10/24 04:31:07;;;;;;;10.77;4.97;;;10.40;99.90;;;;;;5023366;28;20091;-77
2023/10/24 04:33:32;;;;;;;8.38;4.55;;;10.40;99.90;;;;;;5024996;28;20511;-77
2023/10/24 04:35:58;;;;;;;10.10;5.78;;;10.40;99.90;;;;;;5023625;28;20089;-75
2023/10/24 04:38:23;;;;;;;9.75;4.47;;;10.40;99.90;;;;;;5023340;28;20113;-77
2023/10/24 04:40:52;;;;;;;9.15;4.32;;;10.50;99.90;;;;;;5021800;28;20038;-78
2023/10/24 04:43:18;;;;;;;10.80;4.00;;;10.50;99.90;;;;;;5012347;28;20045;-77
2023/10/24 04:45:44;;;;;;;10.00;4.07;;;10.50;99.90;;;;;;5022897;28;20052;-78
2023/10/24 04:48:10;;;;;;;9.85;5.13;;;10.50;99.90;;;;;;5023715;28;20037;-78
2023/10/24 04:50:38;;;;;;;10.23;4.78;;;10.50;99.90;;;;;;5023197;28;20048;-77
2023/10/24 04:53:07;;;;;;;10.85;5.43;;;10.50;99.90;;;;;;5011609;28;20041;-79
2023/10/24 04:55:32;;;;;;;10.95;5.97;;;10.50;99.90;;;;;;5020098;28;20075;-77
2023/10/24 04:57:59;;;;;;;12.02;5.55;;;10.60;99.90;;;;;;5007444;28;20061;-77
2023/10/24 05:00:24;;;;;;;9.90;5.47;;;10.60;99.90;;;;;;5021110;28;20053;-78
2023/10/24 05:02:51;;;;;;;11.10;5.65;;;10.60;99.90;;;;;;5023174;28;20054;-79
2023/10/24 05:05:17;;;;;;;14.35;5.38;;;10.60;99.90;;;;;;5006138;28;20136;-77
2023/10/24 05:07:43;;;;;;;15.75;6.13;;;10.60;99.90;;;;;;5023310;28;20563;-78
2023/10/24 05:10:10;;;;;;;11.77;5.82;;;10.60;99.90;;;;;;5023595;28;20038;-77
2023/10/24 05:12:36;;;;;;;11.13;4.78;;;10.70;99.90;;;;;;5023299;28;20128;-77
2023/10/24 05:15:02;;;;;;;16.50;6.18;;;10.70;99.90;;;;;;5022347;28;20484;-78
2023/10/24 05:17:30;;;;;;;11.30;5.93;;;10.70;99.90;;;;;;5022960;28;20053;-78
2023/10/24 05:19:56;;;;;;;13.73;5.93;;;10.70;99.90;;;;;;5006870;28;20445;-77
2023/10/24 05:22:22;;;;;;;14.23;6.70;;;10.70;99.90;;;;;;5006038;28;20049;-77
2023/10/24 05:24:47;;;;;;;14.98;7.55;;;10.80;99.90;;;;;;5024104;28;20045;-78
2023/10/24 05:27:13;;;;;;;17.10;6.45;;;10.80;99.90;;;;;;5018100;28;20044;-77
2023/10/24 05:29:38;;;;;;;19.90;7.55;;;10.80;99.90;;;;;;5020764;28;20503;-78
2023/10/24 05:32:04;;;;;;;17.60;7.38;;;10.90;99.90;;;;;;5017294;28;20513;-77
2023/10/24 05:34:30;;;;;;;15.20;7.40;;;10.80;99.90;;;;;;5008433;28;20148;-77
2023/10/24 05:36:56;;;;;;;17.05;6.25;;;10.80;99.90;;;;;;5021961;28;20067;-77
2023/10/24 05:39:24;;;;;;;16.13;6.80;;;10.90;99.90;;;;;;5022228;28;20542;-77
2023/10/24 05:41:50;;;;;;;17.67;6.15;;;10.90;99.90;;;;;;5020651;28;20393;-76
2023/10/24 05:44:15;;;;;;;16.85;6.90;;;10.80;99.90;;;;;;5021160;28;20589;-77
2023/10/24 05:46:41;;;;;;;17.90;7.40;;;10.90;99.90;;;;;;5005585;28;20132;-76
2023/10/24 05:49:07;;;;;;;16.10;7.45;;;10.90;99.90;;;;;;5023612;28;20064;-77
2023/10/24 05:51:33;;;;;;;19.17;7.60;;;10.90;99.90;;;;;;5022337;28;20069;-77
2023/10/24 05:53:58;;;;;;;16.30;8.30;;;10.90;99.90;;;;;;5021498;28;20045;-75
2023/10/24 05:56:24;;;;;;;14.00;5.68;;;10.90;99.90;;;;;;5004907;28;20064;-76
2023/10/24 05:58:50;;;;;;;14.93;6.82;;;11.00;99.90;;;;;;5038725;28;20064;-76
2023/10/24 06:01:16;;;;;;;11.75;6.47;;;10.90;99.90;;;;;;5029887;28;20052;-77
2023/10/24 06:03:42;;;;;;;12.60;6.68;;;10.90;99.90;;;;;;5021783;28;20525;-78
2023/10/24 06:06:07;;;;;;;13.23;6.35;;;10.90;99.90;;;;;;5022153;28;20511;-78
2023/10/24 06:08:34;;;;;;;14.93;6.68;;;10.90;99.90;;;;;;5005294;28;20041;-77
2023/10/24 06:11:02;;;;;;;22.45;7.50;;;11.00;99.90;;;;;;5023397;28;20045;-79
2023/10/24 06:13:27;;;;;;;15.18;5.65;;;11.00;99.90;;;;;;5020898;28;20065;-78
2023/10/24 06:15:53;;;;;;;17.88;7.15;;;10.90;99.90;;;;;;5021312;28;20654;-78
2023/10/24 06:18:19;;;;;;;16.58;6.90;;;10.90;99.90;;;;;;5021086;28;20065;-77
2023/10/24 06:20:45;;;;;;;12.50;6.53;;;10.90;99.90;;;;;;5022053;28;20492;-77
2023/10/24 06:23:11;;;;;;;12.93;6.57;;;11.00;99.90;;;;;;5021515;28;20049;-79
2023/10/24 06:25:43;;;;;;;17.65;6.93;;;10.90;99.90;;;;;;5023073;28;20044;-79
2023/10/24 06:28:09;;;;;;;19.25;8.05;;;10.90;99.90;;;;;;5012636;28;20037;-79
2023/10/24 06:30:35;;;;;;;15.63;7.97;;;11.00;99.90;;;;;;5017425;28;20041;-79
2023/10/24 06:33:01;;;;;;;20.98;7.03;;;11.00;99.90;;;;;;5022598;28;20041;-80
2023/10/24 06:35:27;;;;;;;16.92;7.38;;;11.00;99.90;;;;;;5019656;28;20079;-79
2023/10/24 06:37:53;;;;;;;18.15;7.32;;;11.00;99.90;;;;;;5020278;28;20134;-79
2023/10/24 06:40:19;;;;;;;19.92;8.30;;;11.00;99.90;;;;;;5019559;28;20038;-80
2023/10/24 06:42:45;;;;;;;13.93;6.60;;;11.00;99.90;;;;;;5004336;28;21200;-79
2023/10/24 06:45:11;;;;;;;13.73;6.05;;;11.00;99.90;;;;;;5018657;28;20443;-79
2023/10/24 06:47:37;;;;;;;18.95;7.82;;;11.00;99.90;;;;;;5003605;28;20041;-79
2023/10/24 06:50:03;;;;;;;13.75;6.97;;;11.00;99.90;;;;;;5019555;28;20115;-78
2023/10/24 06:52:30;;;;;;;17.13;5.55;;;11.00;99.90;;;;;;5020176;28;20068;-79
2023/10/24 06:54:56;;;;;;;14.43;5.85;;;11.00;99.90;;;;;;5020215;28;20056;-80
2023/10/24 06:57:22;;;;;;;10.40;5.82;;;11.00;99.90;;;;;;5018748;28;20049;-80
2023/10/24 06:59:48;;;;;;;16.50;5.50;;;11.00;99.90;;;;;;5019807;28;20052;-80
2023/10/24 07:02:13;;;;;;;12.68;5.78;;;11.00;99.90;;;;;;5019589;28;20667;-79
2023/10/24 07:04:39;;;;;;;16.00;6.45;;;11.00;99.90;;;;;;5020821;28;20058;-80
2023/10/24 07:07:05;;;;;;;12.52;5.00;;;11.00;99.90;;;;;;5020206;28;20041;-78
2023/10/24 07:09:30;;;;;;;9.05;4.65;;;11.00;99.90;;;;;;5019389;28;20692;-83
2023/10/24 07:11:56;;;;;;;8.48;3.90;;;11.00;99.90;;;;;;5019333;28;20225;-77
2023/10/24 07:14:22;;;;;;;17.92;5.32;;;11.00;99.90;;;;;;5017777;28;20414;-76
2023/10/24 07:16:49;;;;;;;10.50;5.15;;;11.00;99.90;;;;;;5019814;28;20037;-76
2023/10/24 07:19:15;;;;;;;7.97;4.38;;;11.00;99.90;;;;;;5021116;28;20120;-77
2023/10/24 07:21:41;;;;;;;11.20;4.90;;;11.00;99.90;;;;;;5019737;28;20121;-78
2023/10/24 07:24:07;;;;;;;10.60;4.65;;;11.00;99.90;;;;;;5019493;28;20460;-77
2023/10/24 07:26:32;;;;;;;12.52;5.32;;;11.00;99.90;;;;;;5019382;28;20416;-77
2023/10/24 07:28:58;;;;;;;8.25;4.25;;;11.00;99.90;;;;;;5018736;28;20393;-77
2023/10/24 07:31:23;;;;;;;9.98;3.72;;;10.90;99.90;;;;;;5002282;28;20116;-78
2023/10/24 07:33:49;;;;;;;9.30;4.03;;;11.00;99.90;;;;;;5019681;28;20045;-77
2023/10/24 07:36:15;;;;;;;8.63;5.07;;;11.00;99.90;;;;;;5019167;28;20038;-77
2023/10/24 07:38:41;;;;;;;9.02;5.18;;;11.00;99.90;;;;;;5020000;28;20041;-77
2023/10/24 07:41:06;;;;;;;11.18;4.97;;;11.00;99.90;;;;;;5019489;28;20440;-77
2023/10/24 07:43:32;;;;;;;15.98;4.20;;;11.00;99.90;;;;;;5019022;28;20087;-76
2023/10/24 07:45:58;;;;;;;7.03;3.47;;;11.00;99.90;;;;;;5020707;28;20049;-76
2023/10/24 07:48:24;;;;;;;10.23;4.30;;;11.00;99.90;;;;;;5003625;28;20125;-76
2023/10/24 07:50:54;;;;;;;12.95;5.32;;;11.00;99.90;;;;;;5020504;28;20081;-76
2023/10/24 07:53:21;;;;;;;9.30;4.40;;;11.00;99.90;;;;;;5019120;28;20046;-77
2023/10/24 07:55:47;;;;;;;8.30;3.80;;;11.00;99.90;;;;;;5002792;28;20049;-76
2023/10/24 07:58:13;;;;;;;14.50;5.20;;;11.00;99.90;;;;;;5019579;28;20047;-76
2023/10/24 08:00:38;;;;;;;12.35;5.05;;;11.00;99.90;;;;;;5018328;28;20049;-77
2023/10/24 08:03:04;;;;;;;15.32;6.78;;;11.00;99.90;;;;;;5019332;28;20566;-77
2023/10/24 08:05:29;;;;;;;10.88;3.88;;;11.00;99.90;;;;;;5021406;28;20068;-76
2023/10/24 08:07:55;;;;;;;13.38;5.82;;;11.00;99.90;;;;;;5023039;28;20593;-77
2023/10/24 08:10:20;;;;;;;13.57;5.20;;;11.00;99.90;;;;;;5022940;28;20044;-76
2023/10/24 08:12:46;;;;;;;11.35;4.43;;;11.00;99.90;;;;;;5022159;28;20099;-76
2023/10/24 08:15:12;;;;;;;16.30;6.00;;;11.00;99.90;;;;;;5021790;28;20535;-77
2023/10/24 08:17:37;;;;;;;16.35;5.60;;;11.00;99.90;;;;;;5023379;28;20072;-77
2023/10/24 08:20:04;;;;;;;15.63;5.80;;;11.00;99.90;;;;;;5005942;28;20432;-76
2023/10/24 08:22:30;;;;;;;14.25;6.45;;;11.00;99.90;;;;;;5023319;28;20124;-76
2023/10/24 08:24:55;;;;;;;17.25;5.13;;;11.00;99.90;;;;;;5022976;28;20512;-75
2023/10/24 08:27:21;;;;;;;17.85;5.60;;;11.00;99.90;;;;;;5023764;28;20045;-76
2023/10/24 08:29:46;;;;;;;11.90;6.03;;;11.00;99.90;;;;;;5022676;28;20112;-75
2023/10/24 08:32:12;;;;;;;14.13;6.45;;;11.00;99.90;;;;;;5022045;28;20553;-75
2023/10/24 08:34:38;;;;;;;18.35;6.10;;;11.00;99.90;;;;;;5024219;28;20108;-75
2023/10/24 08:37:05;;;;;;;14.85;7.68;;;11.00;99.90;;;;;;5022342;28;20057;-75
2023/10/24 08:39:30;;;;;;;16.35;7.03;;;11.00;99.90;;;;;;5022245;28;20135;-75
2023/10/24 08:41:57;;;;;;;16.70;7.90;;;11.00;99.90;;;;;;5023231;28;20050;-76
2023/10/24 08:44:24;;;;;;;15.55;6.93;;;11.10;99.90;;;;;;5022633;28;20120;-75
2023/10/24 08:46:50;;;;;;;20.70;7.57;;;11.00;99.90;;;;;;5023809;28;20037;-75
2023/10/24 08:49:17;;;;;;;15.45;7.32;;;11.10;99.90;;;;;;5022473;28;20395;-75
2023/10/24 08:51:45;;;;;;;17.13;7.28;;;11.10;99.90;;;;;;5022142;28;20120;-75
2023/10/24 08:54:10;;;;;;;18.67;8.00;;;11.10;99.90;;;;;;5023382;28;20056;-75
2023/10/24 08:56:38;;;;;;;21.27;8.98;;;11.10;99.90;;;;;;5023231;28;20423;-75
2023/10/24 08:59:08;;;;;;;22.17;8.25;;;11.10;99.90;;;;;;5021378;28;20045;-75
2023/10/24 09:01:39;;;;;;;17.40;7.30;;;11.10;99.90;;;;;;5021394;28;20253;-75
2023/10/24 09:04:05;;;;;;;17.30;8.57;;;11.10;99.90;;;;;;5021825;28;20054;-75
2023/10/24 09:06:33;;;;;;;20.85;8.82;;;11.10;99.90;;;;;;5021653;28;20046;-75
2023/10/24 09:09:00;;;;;;;22.83;9.57;;;11.20;99.90;;;;;;5003989;28;20076;-75
2023/10/24 09:11:25;;;;;;;20.63;9.35;;;11.10;99.90;;;;;;5001548;28;20073;-76
2023/10/24 09:13:52;;;;;;;19.17;8.82;;;11.20;99.90;;;;;;4984597;28;20489;-75
2023/10/24 09:16:18;;;;;;;19.20;8.02;;;11.20;99.90;;;;;;5001705;28;20571;-75
2023/10/24 09:18:43;;;;;;;19.02;8.13;;;11.20;99.90;;;;;;4985806;28;20080;-75
2023/10/24 09:21:09;;;;;;;16.75;8.10;;;11.20;99.90;;;;;;4985271;28;20124;-75
2023/10/24 09:23:36;;;;;;;16.60;8.77;;;11.20;99.90;;;;;;5004064;28;20516;-75
2023/10/24 09:26:06;;;;;;;20.20;7.45;;;11.20;99.90;;;;;;5001493;28;20048;-75
2023/10/24 09:28:33;;;;;;;18.77;8.50;;;11.20;99.90;;;;;;5000654;28;20056;-75
2023/10/24 09:30:59;;;;;;;16.75;8.07;;;11.20;99.90;;;;;;5002688;28;20038;-75
2023/10/24 09:33:28;;;;;;;15.70;7.85;;;11.20;99.90;;;;;;5002149;28;20535;-75
2023/10/24 09:35:54;;;;;;;20.17;7.32;;;11.20;99.90;;;;;;5002227;28;20474;-75
2023/10/24 09:38:21;;;;;;;16.48;8.32;;;11.20;99.90;;;;;;5001309;28;20037;-76
2023/10/24 09:40:47;;;;;;;22.15;8.60;;;11.30;99.90;;;;;;5000931;28;20108;-76
2023/10/24 09:43:23;;;;;;;15.73;8.60;;;11.20;99.90;;;;;;5000083;28;20470;-75
2023/10/24 09:45:53;;;;;;;16.13;7.07;;;11.20;99.90;;;;;;5000949;28;20100;-75
2023/10/24 09:48:22;;;;;;;17.63;8.40;;;11.30;99.90;;;;;;4984259;28;20034;-75
2023/10/24 09:50:48;;;;;;;20.15;8.38;;;11.30;99.90;;;;;;5002676;28;20045;-75
2023/10/24 09:53:15;;;;;;;21.33;8.68;;;11.30;99.90;;;;;;4984855;28;20053;-75
2023/10/24 09:55:45;;;;;;;16.75;9.15;;;11.30;99.90;;;;;;5002744;28;20121;-76
2023/10/24 09:58:12;;;;;;;15.13;8.73;;;11.30;99.90;;;;;;5001460;28;20053;-76
2023/10/24 10:00:37;;;;;;;14.75;7.13;;;11.30;99.90;;;;;;5000848;28;20060;-75
2023/10/24 10:03:04;;;;;;;18.73;8.80;;;11.30;99.90;;;;;;5001440;28;20428;-75
2023/10/24 10:05:30;;;;;;;16.38;8.63;;;11.30;99.90;;;;;;5001945;28;20517;-75
2023/10/24 10:07:59;;;;;;;19.65;8.10;;;11.30;99.90;;;;;;5012939;28;20065;-75
2023/10/24 10:10:24;;;;;;;21.13;8.23;;;11.30;99.90;;;;;;5020327;28;20041;-75
2023/10/24 10:12:55;;;;;;;18.80;8.95;;;11.30;99.90;;;;;;5022733;28;20044;-75
2023/10/24 10:15:27;;;;;;;16.92;8.50;;;11.30;99.90;;;;;;5019446;28;20054;-75
2023/10/24 10:18:04;;;;;;;20.05;8.93;;;11.30;99.90;;;;;;5004261;28;20127;-75
2023/10/24 10:20:54;;;;;;;17.08;8.32;;;11.40;99.90;;;;;;5020159;28;20962;-74
2023/10/24 10:23:23;;;;;;;23.10;9.70;;;11.40;99.90;;;;;;5020390;28;20049;-75
2023/10/24 10:26:44;;;;;;;23.75;9.45;;;11.40;99.90;;;;;;5019744;28;20045;-75
2023/10/24 10:29:32;;;;;;;16.50;9.15;;;11.50;99.90;;;;;;5007603;28;20049;-75
2023/10/24 10:32:22;;;;;;;18.30;8.65;;;11.50;99.90;;;;;;5020534;28;20125;-75
2023/10/24 10:34:50;;;;;;;18.55;8.55;;;11.50;99.90;;;;;;5020496;28;20049;-75
2023/10/24 10:37:16;;;;;;;19.00;8.02;;;11.40;99.90;;;;;;5019261;28;20044;-75
2023/10/24 10:39:42;;;;;;;19.80;8.55;;;11.50;99.90;;;;;;5021699;28;20052;-75
2023/10/24 10:42:49;;;;;;;15.68;8.20;;;11.50;99.90;;;;;;5004180;28;20037;-75
2023/10/24 10:45:41;;;;;;;22.23;8.95;;;11.50;99.90;;;;;;5001968;28;20091;-75
2023/10/24 10:48:07;;;;;;;19.40;9.15;;;11.50;99.90;;;;;;5018026;28;20384;-75
2023/10/24 10:50:37;;;;;;;16.17;7.30;;;11.50;99.90;;;;;;5021512;28;20135;-75
2023/10/24 10:53:28;;;;;;;17.00;8.15;;;11.40;99.90;;;;;;5019632;28;20068;-75
2023/10/24 10:56:18;;;;;;;19.00;8.07;;;11.50;99.90;;;;;;5003960;28;20688;-75
2023/10/24 10:59:13;;;;;;;13.98;7.80;;;11.40;99.90;;;;;;5019106;28;20041;-75
2023/10/24 11:01:54;;;;;;;14.25;7.85;;;11.50;99.90;;;;;;5020001;28;20033;-75
2023/10/24 11:04:19;;;;;;;14.45;7.07;;;11.50;99.90;;;;;;5019687;28;20238;-75
2023/10/24 11:06:52;;;;;;;18.05;7.70;;;11.50;99.90;;;;;;5019648;28;20432;-75
2023/10/24 11:09:18;;;;;;;;;;;11.50;99.90;;;;;;5019829;28;20058;-75
2023/10/24 11:11:44;;;;;;;13.70;7.57;;;11.50;99.90;;;;;;5019521;28;20378;-75
2023/10/24 11:14:14;;;;;;;15.45;8.45;;;11.50;99.90;;;;;;5018084;28;20042;-75
2023/10/24 11:16:45;;;;;;;16.60;7.20;;;11.50;99.90;;;;;;5019414;28;20179;-75
2023/10/24 11:19:18;;;;;;;16.20;8.23;;;11.50;99.90;;;;;;5019257;28;20131;-75
2023/10/24 11:21:48;;;;;;;19.60;8.73;;;11.50;99.90;;;;;;5020597;28;20523;-75
2023/10/24 11:24:17;;;;;;;18.58;8.10;;;11.50;99.90;;;;;;5020292;28;20123;-75
2023/10/24 11:26:44;;;;;;;18.30;9.95;;;11.60;99.90;;;;;;5020818;28;20049;-75
2023/10/24 11:29:13;;;;;;;16.55;8.57;;;11.50;99.90;;;;;;5001567;28;20106;-75
2023/10/24 11:31:38;;;;;;;19.92;8.57;;;11.60;99.90;;;;;;5018494;28;20045;-75
2023/10/24 11:34:04;;;;;;;17.38;8.10;;;11.60;99.90;;;;;;5013329;28;20044;-75
2023/10/24 11:36:31;;;;;;;18.50;7.68;;;11.60;99.90;;;;;;5017064;28;20113;-74
2023/10/24 11:38:58;;;;;;;14.30;6.68;;;11.60;99.90;;;;;;5018866;28;20038;-75
2023/10/24 11:41:25;;;;;;;15.68;8.23;;;11.60;99.90;;;;;;5018133;28;20105;-75
2023/10/24 11:43:51;;;;;;;18.13;8.38;;;11.60;99.90;;;;;;5017989;28;20049;-75
2023/10/24 11:46:17;;;;;;;16.33;7.15;;;11.60;99.90;;;;;;5016485;28;20051;-77
2023/10/24 11:48:43;;;;;;;15.57;8.18;;;11.70;99.90;;;;;;5020299;28;20128;-76
2023/10/24 11:51:08;;;;;;;17.67;7.32;;;11.60;99.90;;;;;;5021015;28;20073;-76
2023/10/24 11:53:34;;;;;;;17.05;8.25;;;11.60;99.90;;;;;;5015296;28;20045;-78
2023/10/24 11:56:00;;;;;;;14.73;6.93;;;11.70;99.90;;;;;;5001756;28;20175;-78
2023/10/24 11:58:35;;;;;;;23.27;8.32;;;11.70;99.90;;;;;;5016374;28;20053;-77
2023/10/24 12:01:01;;;;;;;15.57;7.82;;;11.70;99.90;;;;;;5012885;28;20496;-78
2023/10/24 12:03:47;;;;;;;14.13;7.65;;;11.70;99.90;;;;;;5001019;28;20065;-77
2023/10/24 12:06:18;;;;;;;13.95;9.00;;;11.70;99.90;;;;;;5007774;28;20116;-78
2023/10/24 12:08:44;;;;;;;15.07;8.15;;;11.70;99.90;;;;;;5012557;28;20057;-77
2023/10/24 12:11:10;;;;;;;12.07;6.68;;;11.70;99.90;;;;;;5017663;28;20045;-77
2023/10/24 12:13:36;;;;;;;16.10;8.10;;;11.70;99.90;;;;;;5018968;28;20152;-77
2023/10/24 12:16:06;;;;;;;13.85;7.43;;;11.70;99.90;;;;;;5019843;28;20035;-76
2023/10/24 12:18:32;;;;;;;13.13;7.68;;;11.70;99.90;;;;;;5019904;28;20068;-77
2023/10/24 12:20:58;;;;;;;12.50;6.50;;;11.70;99.90;;;;;;5017802;28;20934;-77
2023/10/24 12:23:25;;;;;;;13.05;6.07;;;11.70;99.90;;;;;;5020526;28;20041;-76
2023/10/24 12:25:51;;;;;;;16.52;7.10;;;11.70;99.90;;;;;;5018474;28;20088;-76
2023/10/24 12:28:17;;;;;;;8.68;5.72;;;11.70;99.90;;;;;;5018961;28;20052;-77
2023/10/24 12:30:43;;;;;;;9.00;5.18;;;11.70;99.90;;;;;;5009415;28;20045;-77
2023/10/24 12:33:08;;;;;;;10.10;5.70;;;11.70;99.90;;;;;;5016557;28;20033;-77
2023/10/24 12:35:34;;;;;;;10.35;5.72;;;11.70;99.90;;;;;;5019172;28;20050;-77
2023/10/24 12:37:59;;;;;;;8.02;5.07;;;11.70;99.90;;;;;;5018412;28;20037;-77
2023/10/24 12:40:25;;;;;;;10.40;6.35;;;11.70;99.90;;;;;;5019033;28;20668;-77